Latest Weather Observations for Point Wilson

IDV60901

Issued at 6:41 pm EST Monday 4 May 2026 (issued every 10 minutes, with the page automatically refreshed every 10 minutes)

About weather observations | Map of Melbourne area stations | Latest observations for Melbourne area | Other Formats
Station Details ID: 087166 Name: POINT WILSON Lat: -38.10 Lon: 144.54 Height: 18.0 m
Data from the previous 72 hours. | See also: Recent months at Point Wilson
Date/Time
EST
Temp
°C
App
Temp
°C
Dew
Point
°C
Rel
Hum
%
Delta-T
°C
Wind Press
QNH
hPa
Press
MSL
hPa
Rain since
9am
mm
Dir  Spd
km/h
Gust
km/h
Spd
kts
Gust
kts
04/06:30pm - - - - - NNW 22 39 12 21 - - -
04/06:00pm - - - - - NNW 19 37 10 20 - - -
04/05:30pm - - - - - NNW 22 43 12 23 - - -
04/05:00pm - - - - - NNW 28 50 15 27 - - -
04/04:30pm - - - - - NNW 30 56 16 30 - - -
04/04:00pm - - - - - NNW 28 50 15 27 - - -
04/03:30pm - - - - - NNW 30 56 16 30 - - -
04/03:00pm - - - - - NNW 32 54 17 29 - - -
04/02:41pm - - - - - NNW 28 59 15 32 - - -
04/02:30pm - - - - - NNW 24 48 13 26 - - -
04/02:00pm - - - - - NNW 32 67 17 36 - - -
04/01:30pm - - - - - NNW 28 50 15 27 - - -
04/01:00pm - - - - - NNW 33 63 18 34 - - -
04/12:30pm - - - - - NNW 30 59 16 32 - - -
04/12:10pm - - - - - NNW 28 63 15 34 - - -
04/12:00pm - - - - - NNW 26 50 14 27 - - -
04/11:48am - - - - - NNW 28 52 15 28 - - -
04/11:30am - - - - - NNW 22 46 12 25 - - -
04/11:00am - - - - - NNW 28 50 15 27 - - -
04/10:55am - - - - - NNW 28 50 15 27 - - -
04/10:30am - - - - - NNW 19 46 10 25 - - -
04/10:00am - - - - - NNW 11 33 6 18 - - -
04/09:30am - - - - - N 7 32 4 17 - - -
04/09:00am - - - - - N 6 20 3 11 - - -
04/08:30am - - - - - NNW 6 26 3 14 - - -
04/08:00am - - - - - NW 4 20 2 11 - - -
04/07:30am - - - - - N 4 19 2 10 - - -
04/07:00am - - - - - NNW 6 20 3 11 - - -
04/06:30am - - - - - NW 4 26 2 14 - - -
04/06:00am - - - - - NW 4 20 2 11 - - -
04/05:30am - - - - - NNW 6 22 3 12 - - -
04/05:00am - - - - - NW 4 15 2 8 - - -
04/04:30am - - - - - NNW 7 24 4 13 - - -
04/04:00am - - - - - NNW 6 26 3 14 - - -
04/03:30am - - - - - NNW 6 19 3 10 - - -
04/03:00am - - - - - WNW 6 26 3 14 - - -
04/02:30am - - - - - NW 6 20 3 11 - - -
04/02:00am - - - - - NW 4 17 2 9 - - -
04/01:30am - - - - - N 4 19 2 10 - - -
04/01:00am - - - - - NNE 4 24 2 13 - - -
04/12:30am - - - - - N 6 22 3 12 - - -
04/12:00am - - - - - N 7 28 4 15 - - -
 
Date/Time
EST
Temp
°C
App
Temp
°C
Dew
Point
°C
Rel
Hum
%
Delta-T
°C
Wind Press
QNH
hPa
Press
MSL
hPa
Rain since
9am
mm
Dir  Spd
km/h
Gust
km/h
Spd
kts
Gust
kts
03/11:30pm - - - - - NNE 6 28 3 15 - - -
03/11:00pm - - - - - NNW 9 28 5 15 - - -
03/10:30pm - - - - - NNW 4 22 2 12 - - -
03/10:00pm - - - - - NNW 6 17 3 9 - - -
03/09:30pm - - - - - NW 6 15 3 8 - - -
03/09:00pm - - - - - NNW 6 19 3 10 - - -
03/08:30pm - - - - - N 6 24 3 13 - - -
03/08:00pm - - - - - NW 4 15 2 8 - - -
03/07:30pm - - - - - NNE 4 17 2 9 - - -
03/07:00pm - - - - - N 4 17 2 9 - - -
03/06:30pm - - - - - N 4 17 2 9 - - -
03/06:00pm - - - - - NNW 7 20 4 11 - - -
03/05:30pm - - - - - NNW 13 22 7 12 - - -
03/05:00pm - - - - - NNW 15 24 8 13 - - -
03/04:30pm - - - - - NW 17 26 9 14 - - -
03/04:00pm - - - - - NW 22 35 12 19 - - -
03/03:30pm - - - - - NW 24 32 13 17 - - -
03/03:00pm - - - - - NW 26 37 14 20 - - -
03/02:30pm - - - - - NNW 11 22 6 12 - - -
03/02:00pm - - - - - NW 13 19 7 10 - - -
03/01:30pm - - - - - NW 22 33 12 18 - - -
03/01:00pm - - - - - WNW 17 22 9 12 - - -
03/12:30pm - - - - - W 22 24 12 13 - - -
03/12:07pm - - - - - NNW 22 61 12 33 - - -
03/12:00pm - - - - - N 9 48 5 26 - - -
03/11:30am - - - - - N 7 28 4 15 - - -
03/11:00am - - - - - NNW 9 32 5 17 - - -
03/10:30am - - - - - NNW 9 33 5 18 - - -
03/10:00am - - - - - N 11 43 6 23 - - -
03/09:30am - - - - - N 17 43 9 23 - - -
03/09:16am - - - - - N 13 50 7 27 - - -
03/09:06am - - - - - N 9 37 5 20 - - -
03/09:00am - - - - - N 11 35 6 19 - - -
03/08:30am - - - - - NNW 13 35 7 19 - - -
03/08:00am - - - - - N 11 33 6 18 - - -
03/07:30am - - - - - NNW 7 30 4 16 - - -
03/07:00am - - - - - NNW 7 26 4 14 - - -
03/06:30am - - - - - NNE 13 26 7 14 - - -
03/06:00am - - - - - NE 15 20 8 11 - - -
03/05:30am - - - - - NNE 11 22 6 12 - - -
03/05:00am - - - - - N 9 24 5 13 - - -
03/04:30am - - - - - N 7 20 4 11 - - -
03/04:00am - - - - - N 9 24 5 13 - - -
03/03:30am - - - - - N 9 26 5 14 - - -
03/03:00am - - - - - N 7 17 4 9 - - -
03/02:30am - - - - - N 9 20 5 11 - - -
03/02:00am - - - - - N 9 15 5 8 - - -
03/01:30am - - - - - NNE 7 13 4 7 - - -
03/01:00am - - - - - N 9 19 5 10 - - -
03/12:30am - - - - - N 6 19 3 10 - - -
03/12:00am - - - - - N 7 26 4 14 - - -
 
Date/Time
EST
Temp
°C
App
Temp
°C
Dew
Point
°C
Rel
Hum
%
Delta-T
°C
Wind Press
QNH
hPa
Press
MSL
hPa
Rain since
9am
mm
Dir  Spd
km/h
Gust
km/h
Spd
kts
Gust
kts
02/11:30pm - - - - - N 7 26 4 14 - - -
02/11:00pm - - - - - N 7 30 4 16 - - -
02/10:30pm - - - - - NNE 9 15 5 8 - - -
02/10:00pm - - - - - N 6 9 3 5 - - -
02/09:30pm - - - - - NNE 11 13 6 7 - - -
02/09:00pm - - - - - NE 13 15 7 8 - - -
02/08:30pm - - - - - NNE 11 15 6 8 - - -
02/08:00pm - - - - - N 13 19 7 10 - - -
02/07:30pm - - - - - N 9 26 5 14 - - -
02/07:00pm - - - - - NNE 11 15 6 8 - - -
02/06:30pm - - - - - NNE 13 17 7 9 - - -
02/06:00pm - - - - - N 11 17 6 9 - - -
02/05:30pm - - - - - N 13 26 7 14 - - -
02/05:00pm - - - - - N 13 28 7 15 - - -
02/04:30pm - - - - - N 11 28 6 15 - - -
02/04:00pm - - - - - N 13 33 7 18 - - -
02/03:30pm - - - - - N 15 28 8 15 - - -
02/03:00pm - - - - - NNE 20 30 11 16 - - -
02/02:30pm - - - - - N 13 32 7 17 - - -
02/02:00pm - - - - - NNE 17 30 9 16 - - -
02/01:30pm - - - - - NNE 15 24 8 13 - - -
02/01:00pm - - - - - N 11 24 6 13 - - -
02/12:30pm - - - - - NNE 17 26 9 14 - - -
02/12:00pm - - - - - N 13 26 7 14 - - -
02/11:30am - - - - - N 11 28 6 15 - - -
02/11:00am - - - - - N 11 28 6 15 - - -
02/10:30am - - - - - N 9 26 5 14 - - -
02/10:00am - - - - - N 11 32 6 17 - - -
02/09:30am - - - - - N 13 26 7 14 - - -
02/09:00am - - - - - N 13 37 7 20 - - -
02/08:30am - - - - - NNW 13 32 7 17 - - -
02/08:00am - - - - - N 11 30 6 16 - - -
02/07:30am - - - - - N 11 28 6 15 - - -
02/07:00am - - - - - N 9 30 5 16 - - -
02/06:30am - - - - - N 11 24 6 13 - - -
02/06:00am - - - - - N 11 24 6 13 - - -
02/05:30am - - - - - N 9 19 5 10 - - -
02/05:00am - - - - - N 9 20 5 11 - - -
02/04:30am - - - - - N 7 17 4 9 - - -
02/04:00am - - - - - N 9 19 5 10 - - -
02/03:30am - - - - - N 11 22 6 12 - - -
02/03:00am - - - - - N 9 22 5 12 - - -
02/02:30am - - - - - NNE 11 15 6 8 - - -
02/02:00am - - - - - NNE 11 17 6 9 - - -
02/01:30am - - - - - N 7 22 4 12 - - -
02/01:00am - - - - - NNE 11 17 6 9 - - -
02/12:30am - - - - - NNE 11 15 6 8 - - -
02/12:00am - - - - - NNE 13 15 7 8 - - -
 
Date/Time
EST
Temp
°C
App
Temp
°C
Dew
Point
°C
Rel
Hum
%
Delta-T
°C
Wind Press
QNH
hPa
Press
MSL
hPa
Rain since
9am
mm
Dir  Spd
km/h
Gust
km/h
Spd
kts
Gust
kts
01/11:30pm - - - - - N 7 11 4 6 - - -
01/11:00pm - - - - - N 7 13 4 7 - - -
01/10:30pm - - - - - NNE 7 11 4 6 - - -
01/10:00pm - - - - - NNE 9 13 5 7 - - -
01/09:30pm - - - - - N 9 15 5 8 - - -
01/09:00pm - - - - - N 11 15 6 8 - - -
01/08:30pm - - - - - NNE 11 17 6 9 - - -
01/08:00pm - - - - - NNE 11 19 6 10 - - -
01/07:30pm - - - - - NNE 17 22 9 12 - - -
01/07:00pm - - - - - NNE 19 22 10 12 - - -

Latest Capital City Observations: Canberra | Sydney | Melbourne | Brisbane | Adelaide | Perth | Hobart | Darwin

Other formats

Comma delimited format used in spreadsheet applications
http://www.bom.gov.au/fwo/IDV60901/IDV60901.94847.axf

JavaScript Object Notation format (JSON) in row-major order
http://www.bom.gov.au/fwo/IDV60901/IDV60901.94847.json

Data quality

Most of these data are generated automatically and are frequently updated. Quality checks on data are not normally performed. It is possible for incorrect values to appear. Refer to information at About Latest Weather Observations and please check the disclaimer before using these data.